Time;durP1;ratioP1;P1;durP2;ratioP2;P2;SDS_P1;SDS_P2;PMS_P1;PMS_P2;Temp;Humidity;BMP_temperature;BMP_pressure;BME280_temperature;BME280_humidity;BME280_pressure;Samples;Min_cycle;Max_cycle;Signal;HPM_P1;HPM_P2
2021/09/15 00:04:08;;;;;;;8.70;6.32;;;17.30;99.90;;;;;;6404694;22;20197;-94
2021/09/15 00:06:36;;;;;;;8.95;6.75;;;17.30;99.90;;;;;;6378304;22;20175;-93
2021/09/15 00:09:14;;;;;;;7.88;6.50;;;17.30;99.90;;;;;;6378959;22;20160;-94
2021/09/15 00:11:40;;;;;;;11.32;6.68;;;17.40;99.90;;;;;;6347770;22;20154;-92
2021/09/15 00:14:15;;;;;;;12.80;8.70;;;17.40;99.90;;;;;;6347373;22;20180;-92
2021/09/15 00:16:47;;;;;;;10.18;6.43;;;17.40;99.90;;;;;;6347969;22;20157;-92
2021/09/15 00:19:13;;;;;;;9.20;6.75;;;17.40;99.90;;;;;;6347516;22;20166;-92
2021/09/15 00:21:40;;;;;;;11.40;7.20;;;17.30;99.90;;;;;;6346892;22;20182;-93
2021/09/15 00:24:34;;;;;;;8.82;6.72;;;17.30;99.90;;;;;;6346876;22;20584;-92
2021/09/15 00:27:04;;;;;;;8.48;6.95;;;17.30;99.90;;;;;;6348175;22;20165;-92
2021/09/15 00:29:40;;;;;;;8.60;7.25;;;17.30;99.90;;;;;;6347322;22;20612;-94
2021/09/15 00:32:14;;;;;;;7.55;6.70;;;17.30;99.90;;;;;;6348521;22;20155;-93
2021/09/15 00:34:46;;;;;;;11.95;7.13;;;17.30;99.90;;;;;;6348027;22;20151;-95
2021/09/15 00:37:16;;;;;;;7.68;6.72;;;17.30;99.90;;;;;;6347114;22;20143;-92
2021/09/15 00:39:54;;;;;;;9.30;6.68;;;17.30;99.90;;;;;;6346647;22;20186;-92
2021/09/15 00:42:25;;;;;;;9.23;6.82;;;17.30;99.90;;;;;;6346568;22;20162;-92
2021/09/15 00:44:50;;;;;;;10.32;7.18;;;17.30;99.90;;;;;;6347242;22;20159;-92
2021/09/15 00:47:17;;;;;;;12.85;7.60;;;17.30;99.90;;;;;;6346502;22;20155;-93
2021/09/15 00:49:49;;;;;;;8.60;7.00;;;17.30;99.90;;;;;;6346553;22;20642;-94
2021/09/15 00:52:18;;;;;;;10.80;7.20;;;17.30;99.90;;;;;;6347292;22;20157;-93
2021/09/15 00:54:47;;;;;;;8.75;7.68;;;17.20;99.90;;;;;;6346772;22;20237;-92
2021/09/15 00:57:15;;;;;;;9.35;7.43;;;17.20;99.90;;;;;;6346687;22;20206;-92
2021/09/15 00:59:43;;;;;;;8.57;7.25;;;17.20;99.90;;;;;;6346628;22;20174;-93
2021/09/15 01:02:23;;;;;;;11.50;7.50;;;17.20;99.90;;;;;;6341481;22;20195;-92
2021/09/15 01:04:48;;;;;;;8.18;7.30;;;17.20;99.90;;;;;;6341329;22;20155;-91
2021/09/15 01:07:19;;;;;;;8.45;7.60;;;17.20;99.90;;;;;;6342778;22;20458;-94
2021/09/15 01:09:55;;;;;;;9.88;7.28;;;17.20;99.90;;;;;;6366606;22;20195;-91
2021/09/15 01:12:21;;;;;;;11.48;7.32;;;17.20;99.90;;;;;;6341516;22;20151;-94
2021/09/15 01:15:01;;;;;;;11.50;7.25;;;17.20;99.90;;;;;;6340795;22;20155;-93
2021/09/15 01:17:46;;;;;;;8.80;7.13;;;17.20;99.90;;;;;;6341522;22;20151;-94
2021/09/15 01:20:18;;;;;;;8.52;7.50;;;17.20;99.90;;;;;;6341061;22;20183;-92
2021/09/15 01:22:50;;;;;;;10.80;7.82;;;17.20;99.90;;;;;;6342410;22;20234;-92
2021/09/15 01:25:18;;;;;;;12.80;7.35;;;17.20;99.90;;;;;;6343499;22;20158;-92
2021/09/15 01:27:53;;;;;;;7.97;7.18;;;17.20;99.90;;;;;;6343503;22;20151;-93
2021/09/15 01:30:30;;;;;;;11.68;7.00;;;17.20;99.90;;;;;;6341740;22;20194;-92
2021/09/15 01:33:15;;;;;;;7.93;6.68;;;17.20;99.90;;;;;;6341786;22;20147;-93
2021/09/15 01:35:42;;;;;;;9.75;7.32;;;17.20;99.90;;;;;;6342073;22;20584;-93
2021/09/15 01:38:09;;;;;;;8.63;7.72;;;17.20;99.90;;;;;;6342324;22;20151;-93
2021/09/15 01:40:36;;;;;;;8.00;6.93;;;17.20;99.90;;;;;;6341833;22;20185;-93
2021/09/15 01:43:04;;;;;;;10.85;7.18;;;17.20;99.90;;;;;;6342031;22;20151;-94
2021/09/15 01:45:33;;;;;;;8.25;7.13;;;17.20;99.90;;;;;;6341441;22;20151;-92
2021/09/15 01:48:04;;;;;;;11.18;7.00;;;17.20;99.90;;;;;;6341744;22;20151;-93
2021/09/15 01:50:34;;;;;;;10.90;7.30;;;17.20;99.90;;;;;;6341976;22;20202;-95
2021/09/15 01:53:08;;;;;;;8.63;7.72;;;17.20;99.90;;;;;;6341672;22;20155;-91
2021/09/15 01:55:40;;;;;;;9.70;7.40;;;17.10;99.90;;;;;;6341982;22;20227;-92
2021/09/15 01:58:11;;;;;;;8.27;7.35;;;17.10;99.90;;;;;;6341368;22;20151;-92
2021/09/15 02:00:41;;;;;;;11.00;7.65;;;17.10;99.90;;;;;;6340941;22;20569;-92
2021/09/15 02:03:22;;;;;;;12.32;7.53;;;17.10;99.90;;;;;;6340923;22;20203;-93
2021/09/15 02:06:07;;;;;;;8.82;7.75;;;17.10;99.90;;;;;;6341498;22;20709;-91
2021/09/15 02:08:36;;;;;;;8.85;7.85;;;17.20;99.90;;;;;;6341555;22;20235;-92
2021/09/15 02:11:04;;;;;;;8.73;7.88;;;17.10;99.90;;;;;;6340684;22;20277;-94
2021/09/15 02:13:41;;;;;;;10.15;7.88;;;17.20;99.90;;;;;;6340482;22;20509;-92
2021/09/15 02:16:07;;;;;;;9.13;8.25;;;17.10;99.90;;;;;;6340821;22;20150;-91
2021/09/15 02:18:35;;;;;;;11.50;7.50;;;17.10;99.90;;;;;;6340680;22;20668;-92
2021/09/15 02:21:02;;;;;;;10.63;8.38;;;17.10;99.90;;;;;;6341629;22;20244;-91
2021/09/15 02:23:35;;;;;;;9.20;7.65;;;17.10;99.90;;;;;;6341668;22;20163;-94
2021/09/15 02:26:04;;;;;;;10.07;7.82;;;17.00;99.90;;;;;;6342346;22;20165;-93
2021/09/15 02:28:30;;;;;;;8.77;7.93;;;17.00;99.90;;;;;;6340644;22;20159;-93
2021/09/15 02:31:24;;;;;;;8.20;7.10;;;17.00;99.90;;;;;;6341261;22;20642;-94
2021/09/15 02:34:36;;;;;;;10.15;8.20;;;17.10;99.90;;;;;;6342268;22;20179;-91
2021/09/15 02:37:02;;;;;;;9.65;8.15;;;17.10;99.90;;;;;;6367644;22;20162;-94
2021/09/15 02:39:30;;;;;;;9.02;8.13;;;17.10;99.90;;;;;;6341627;22;20159;-93
2021/09/15 02:41:58;;;;;;;9.48;7.85;;;17.00;99.90;;;;;;6341698;22;20600;-93
2021/09/15 02:44:24;;;;;;;8.77;7.60;;;17.00;99.90;;;;;;6340820;22;20588;-91
2021/09/15 02:46:54;;;;;;;9.60;7.78;;;17.00;99.90;;;;;;6341063;22;20166;-93
2021/09/15 02:49:27;;;;;;;9.38;7.88;;;17.00;99.90;;;;;;6341370;22;20512;-93
2021/09/15 02:51:56;;;;;;;8.52;7.72;;;17.00;99.90;;;;;;6342121;22;20155;-94
2021/09/15 02:54:34;;;;;;;12.23;8.30;;;17.00;99.90;;;;;;6340433;22;20155;-92
2021/09/15 02:57:00;;;;;;;8.05;7.25;;;17.00;99.90;;;;;;6339986;22;20155;-92
2021/09/15 02:59:26;;;;;;;8.70;7.80;;;17.10;99.90;;;;;;6340129;22;20151;-93
2021/09/15 03:01:52;;;;;;;9.15;8.20;;;17.00;99.90;;;;;;6345927;22;20303;-91
2021/09/15 03:04:20;;;;;;;9.10;8.07;;;17.00;99.90;;;;;;6347363;22;20219;-91
2021/09/15 03:06:55;;;;;;;9.75;7.95;;;17.00;99.90;;;;;;6373989;22;20595;-91
2021/09/15 03:09:27;;;;;;;8.88;8.02;;;17.00;99.90;;;;;;6347791;22;20266;-93
2021/09/15 03:12:13;;;;;;;8.63;7.80;;;17.00;99.90;;;;;;6347589;22;20146;-92
2021/09/15 03:14:41;;;;;;;8.82;7.93;;;17.00;99.90;;;;;;6347497;22;20580;-93
2021/09/15 03:17:15;;;;;;;9.60;8.05;;;16.90;99.90;;;;;;6347293;22;20162;-93
2021/09/15 03:19:49;;;;;;;8.35;7.55;;;16.90;99.90;;;;;;6346466;22;20257;-94
2021/09/15 03:22:18;;;;;;;10.18;8.60;;;16.90;99.90;;;;;;6348479;22;20150;-93
2021/09/15 03:24:59;;;;;;;8.82;7.93;;;16.90;99.90;;;;;;6347488;22;20458;-91
2021/09/15 03:27:25;;;;;;;9.38;8.27;;;16.90;99.90;;;;;;6346565;22;20162;-94
2021/09/15 03:29:51;;;;;;;10.32;8.57;;;16.90;99.90;;;;;;6346392;22;20198;-93
2021/09/15 03:32:17;;;;;;;12.40;9.10;;;16.90;99.90;;;;;;6373155;22;20159;-93
2021/09/15 03:34:46;;;;;;;11.57;8.65;;;16.90;99.90;;;;;;6346172;22;20287;-92
2021/09/15 03:37:12;;;;;;;11.40;8.90;;;16.90;99.90;;;;;;6346461;22;20157;-93
2021/09/15 03:39:38;;;;;;;9.10;7.78;;;16.90;99.90;;;;;;6346290;22;20247;-95
2021/09/15 03:42:32;;;;;;;13.30;9.30;;;16.90;99.90;;;;;;6345886;22;20588;-93
2021/09/15 03:44:58;;;;;;;8.82;8.02;;;16.90;99.90;;;;;;6346183;22;20158;-93
2021/09/15 03:47:24;;;;;;;10.73;8.55;;;16.90;99.90;;;;;;6346264;22;20211;-93
2021/09/15 03:49:51;;;;;;;9.23;8.05;;;16.90;99.90;;;;;;6346109;22;20182;-95
2021/09/15 03:52:19;;;;;;;10.85;8.90;;;16.90;99.90;;;;;;6346780;22;20224;-94
2021/09/15 03:54:46;;;;;;;10.70;9.50;;;16.80;99.90;;;;;;6346521;22;20483;-91
2021/09/15 03:57:12;;;;;;;10.10;8.85;;;16.80;99.90;;;;;;6346417;22;20592;-92
2021/09/15 03:59:38;;;;;;;12.65;9.35;;;16.90;99.90;;;;;;6346064;22;20178;-93
2021/09/15 04:02:09;;;;;;;10.20;9.20;;;16.80;99.90;;;;;;6345098;22;20227;-92
2021/09/15 04:04:35;;;;;;;10.95;8.70;;;16.80;99.90;;;;;;6345945;22;20155;-93
2021/09/15 04:07:04;;;;;;;10.18;9.18;;;16.80;99.90;;;;;;6345783;22;20461;-92
2021/09/15 04:09:34;;;;;;;10.52;9.52;;;16.70;99.90;;;;;;6346249;22;20178;-92
2021/09/15 04:12:00;;;;;;;10.38;9.27;;;16.80;99.90;;;;;;6345564;22;20316;-92
2021/09/15 04:14:27;;;;;;;12.98;9.65;;;16.80;99.90;;;;;;6346007;22;20291;-93
2021/09/15 04:17:05;;;;;;;9.77;8.88;;;16.70;99.90;;;;;;6346579;22;20146;-91
2021/09/15 04:19:39;;;;;;;11.18;9.95;;;16.70;99.90;;;;;;6345682;22;20244;-92
2021/09/15 04:22:20;;;;;;;11.73;9.02;;;16.70;99.90;;;;;;6345904;22;20572;-92
2021/09/15 04:33:02;;;;;;;11.98;9.02;;;16.80;99.90;;;;;;6374369;22;20598;-92
2021/09/15 04:35:29;;;;;;;12.68;9.07;;;16.80;99.90;;;;;;6346929;22;20161;-93
2021/09/15 04:37:58;;;;;;;10.32;9.23;;;16.80;99.90;;;;;;6345819;22;20154;-94
2021/09/15 04:40:34;;;;;;;11.15;10.02;;;16.80;99.90;;;;;;6345955;22;20493;-93
2021/09/15 04:43:09;;;;;;;11.00;9.60;;;16.80;99.90;;;;;;6346110;22;20177;-93
2021/09/15 04:45:36;;;;;;;11.10;9.23;;;16.80;99.90;;;;;;6345918;22;20161;-93
2021/09/15 04:48:18;;;;;;;10.40;9.18;;;16.80;99.90;;;;;;6346520;22;20169;-93
2021/09/15 04:50:44;;;;;;;11.57;8.48;;;16.80;99.90;;;;;;6346992;22;20277;-91
2021/09/15 04:53:11;;;;;;;11.27;9.10;;;16.80;99.90;;;;;;6346653;22;20150;-92
2021/09/15 04:55:55;;;;;;;11.00;9.32;;;16.80;99.90;;;;;;6346339;22;20225;-92
2021/09/15 04:58:40;;;;;;;11.13;9.30;;;16.90;99.90;;;;;;6346334;22;20192;-94
2021/09/15 05:01:07;;;;;;;10.88;9.77;;;16.90;99.90;;;;;;6346158;22;20180;-93
2021/09/15 05:03:34;;;;;;;10.50;9.40;;;16.80;99.90;;;;;;6340394;22;20206;-94
2021/09/15 05:06:02;;;;;;;10.80;9.70;;;16.80;99.90;;;;;;6341488;22;20600;-91
2021/09/15 05:08:30;;;;;;;12.43;9.55;;;16.90;99.90;;;;;;6341299;22;20175;-92
2021/09/15 05:11:09;;;;;;;11.68;9.93;;;16.80;99.90;;;;;;6341222;22;20280;-93
2021/09/15 05:13:41;;;;;;;12.05;10.75;;;16.80;99.90;;;;;;6341095;22;20154;-93
2021/09/15 05:16:09;;;;;;;9.90;8.90;;;16.80;99.90;;;;;;6340895;22;20155;-93
2021/09/15 05:18:34;;;;;;;12.27;10.88;;;16.80;99.90;;;;;;6340757;22;20156;-93
2021/09/15 05:21:03;;;;;;;12.90;11.18;;;16.80;99.90;;;;;;6340582;22;20225;-94
2021/09/15 05:23:30;;;;;;;10.45;9.35;;;16.80;99.90;;;;;;6339671;22;20167;-91
2021/09/15 05:26:03;;;;;;;12.27;9.90;;;16.80;99.90;;;;;;6341166;22;20580;-92
2021/09/15 05:28:37;;;;;;;11.20;10.02;;;16.70;99.90;;;;;;6341449;22;20585;-94
2021/09/15 05:31:14;;;;;;;12.40;10.00;;;16.70;99.90;;;;;;6340696;22;20194;-92
2021/09/15 05:33:42;;;;;;;11.65;10.45;;;16.70;99.90;;;;;;6340951;22;20178;-93
2021/09/15 05:36:10;;;;;;;15.45;11.38;;;16.70;99.90;;;;;;6340559;22;20151;-92
2021/09/15 05:38:40;;;;;;;14.40;11.88;;;16.70;99.90;;;;;;6339922;22;20161;-95
2021/09/15 05:41:20;;;;;;;15.75;12.80;;;16.70;99.90;;;;;;6340120;22;20254;-93
2021/09/15 05:43:50;;;;;;;13.63;11.35;;;16.70;99.90;;;;;;6340501;22;20178;-94
2021/09/15 05:46:19;;;;;;;12.10;10.48;;;16.70;99.90;;;;;;6340651;22;20242;-94
2021/09/15 05:48:45;;;;;;;16.35;11.93;;;16.70;99.90;;;;;;6340461;22;20485;-91
2021/09/15 05:51:27;;;;;;;15.43;10.57;;;16.60;99.90;;;;;;6341067;22;20193;-92
2021/09/15 05:53:54;;;;;;;12.57;10.80;;;16.60;99.90;;;;;;6341312;22;20240;-92
2021/09/15 05:56:22;;;;;;;12.70;11.23;;;16.60;99.90;;;;;;6341058;22;20217;-91
2021/09/15 05:58:48;;;;;;;14.48;10.45;;;16.60;99.90;;;;;;6341356;22;20179;-94
2021/09/15 06:01:14;;;;;;;12.30;11.10;;;16.60;99.90;;;;;;6340830;22;20186;-95
2021/09/15 06:03:45;;;;;;;15.68;11.40;;;16.70;99.90;;;;;;6340881;22;20252;-92
2021/09/15 06:06:34;;;;;;;11.70;10.50;;;16.70;99.90;;;;;;6341035;22;20155;-93
2021/09/15 06:09:10;;;;;;;14.77;11.50;;;16.80;99.90;;;;;;6340411;22;20162;-95
2021/09/15 06:11:36;;;;;;;15.38;10.75;;;16.80;99.90;;;;;;6340330;22;20190;-94
2021/09/15 06:14:02;;;;;;;11.88;10.68;;;16.70;99.90;;;;;;6339931;22;20482;-92
2021/09/15 06:16:40;;;;;;;13.75;11.05;;;16.80;99.90;;;;;;6340723;22;20174;-92
2021/09/15 06:19:29;;;;;;;13.02;10.50;;;16.80;99.90;;;;;;6341003;22;20179;-93
2021/09/15 06:21:58;;;;;;;11.02;9.82;;;16.80;99.90;;;;;;6367402;22;20151;-95
2021/09/15 06:24:39;;;;;;;13.00;11.25;;;16.80;99.90;;;;;;6341495;22;20143;-92
2021/09/15 06:27:08;;;;;;;13.93;9.98;;;16.90;99.90;;;;;;6344530;22;20230;-94
2021/09/15 06:29:35;;;;;;;12.55;11.25;;;16.90;99.90;;;;;;6345683;22;20175;-94
2021/09/15 06:32:06;;;;;;;11.10;10.00;;;16.90;99.90;;;;;;6344873;22;20154;-93
2021/09/15 06:34:44;;;;;;;13.73;12.07;;;17.00;99.90;;;;;;6344507;22;20169;-91
2021/09/15 06:37:16;;;;;;;11.43;10.32;;;17.00;99.90;;;;;;6344269;22;20154;-94
2021/09/15 06:39:44;;;;;;;11.60;10.43;;;17.10;99.90;;;;;;6344364;22;20179;-92
2021/09/15 06:42:12;;;;;;;14.50;11.80;;;17.20;99.90;;;;;;6343444;22;20154;-93
2021/09/15 06:44:49;;;;;;;13.05;11.65;;;17.30;99.90;;;;;;6343963;22;20485;-93
2021/09/15 06:47:20;;;;;;;12.40;11.10;;;17.40;99.90;;;;;;6342894;22;20158;-92
2021/09/15 06:49:46;;;;;;;12.35;11.05;;;17.50;99.90;;;;;;6343805;22;20246;-92
2021/09/15 06:52:13;;;;;;;11.82;10.60;;;17.50;99.90;;;;;;6345905;22;20151;-93
2021/09/15 06:54:45;;;;;;;12.15;10.25;;;17.50;99.90;;;;;;6344906;22;20175;-93
2021/09/15 06:57:19;;;;;;;11.40;10.35;;;17.60;99.90;;;;;;6345430;22;20158;-94
2021/09/15 06:59:44;;;;;;;12.10;10.90;;;17.70;99.90;;;;;;6344447;22;20535;-93
2021/09/15 07:02:10;;;;;;;11.63;10.50;;;17.70;99.90;;;;;;6349443;22;20294;-94
2021/09/15 07:04:41;;;;;;;12.77;11.38;;;17.80;99.90;;;;;;6350311;22;20159;-92
2021/09/15 07:07:26;;;;;;;12.00;10.80;;;17.80;99.90;;;;;;6350037;22;20154;-91
2021/09/15 07:09:58;;;;;;;14.07;11.63;;;17.80;99.90;;;;;;6350120;22;20193;-93
2021/09/15 07:12:24;;;;;;;18.83;11.63;;;17.80;99.90;;;;;;6350322;22;20959;-92
2021/09/15 07:15:06;;;;;;;16.23;11.63;;;17.70;99.90;;;;;;6350670;22;20163;-92
2021/09/15 07:17:32;;;;;;;17.98;12.40;;;17.70;99.90;;;;;;6350765;22;20213;-94
2021/09/15 07:19:58;;;;;;;13.90;12.48;;;17.70;99.90;;;;;;6350222;22;20181;-92
2021/09/15 07:22:23;;;;;;;12.57;10.65;;;17.70;99.90;;;;;;6349962;22;20154;-92
2021/09/15 07:24:51;;;;;;;17.67;12.07;;;17.70;99.90;;;;;;6350758;22;20155;-92
2021/09/15 07:27:19;;;;;;;13.52;11.57;;;17.80;99.90;;;;;;6350413;22;20167;-92
2021/09/15 07:29:46;;;;;;;17.05;11.98;;;17.90;99.90;;;;;;6347698;22;20556;-92
2021/09/15 07:32:12;;;;;;;14.45;12.55;;;17.90;99.90;;;;;;6350428;22;20149;-92
2021/09/15 07:34:44;;;;;;;15.15;11.85;;;17.90;99.90;;;;;;6349705;22;20206;-93
2021/09/15 07:37:12;;;;;;;15.50;11.98;;;17.90;99.90;;;;;;6350329;22;20482;-92
2021/09/15 07:39:38;;;;;;;13.82;11.50;;;17.90;99.90;;;;;;6350377;22;20181;-92
2021/09/15 07:42:04;;;;;;;17.38;12.25;;;17.90;99.90;;;;;;6349762;22;20147;-92
2021/09/15 07:44:33;;;;;;;16.95;12.57;;;17.90;99.90;;;;;;6348908;22;20527;-92
2021/09/15 07:47:18;;;;;;;12.73;11.38;;;17.90;99.90;;;;;;6351250;22;20592;-94
2021/09/15 07:49:49;;;;;;;11.10;10.00;;;18.00;99.90;;;;;;6351036;22;20197;-95
2021/09/15 07:52:17;;;;;;;13.25;11.70;;;18.10;99.90;;;;;;6351225;22;20153;-93
2021/09/15 07:54:52;;;;;;;16.42;12.18;;;18.10;99.90;;;;;;6351228;22;20143;-93
2021/09/15 07:57:20;;;;;;;11.93;10.52;;;18.10;99.90;;;;;;6349712;22;20243;-94
2021/09/15 07:59:49;;;;;;;16.35;12.00;;;18.20;99.90;;;;;;6350730;22;20246;-91
2021/09/15 08:02:22;;;;;;;14.07;11.32;;;18.20;99.90;;;;;;6349675;22;20715;-92
2021/09/15 08:04:51;;;;;;;14.88;12.27;;;18.30;99.90;;;;;;6350634;22;20184;-93
2021/09/15 08:07:19;;;;;;;12.45;11.13;;;18.40;99.90;;;;;;6350811;22;20154;-92
2021/09/15 08:09:54;;;;;;;17.15;11.32;;;18.40;99.90;;;;;;6350994;22;20190;-93
2021/09/15 08:12:23;;;;;;;13.90;10.65;;;18.50;99.90;;;;;;6350794;22;20155;-94
2021/09/15 08:14:50;;;;;;;15.30;10.07;;;18.60;99.90;;;;;;6350920;22;20216;-91
2021/09/15 08:17:17;;;;;;;11.52;10.10;;;18.70;99.90;;;;;;6351701;22;20150;-94
2021/09/15 08:19:45;;;;;;;12.40;10.35;;;18.70;99.90;;;;;;6351590;22;20175;-92
2021/09/15 08:22:23;;;;;;;11.23;9.80;;;18.80;99.90;;;;;;6351409;22;20151;-93
2021/09/15 08:24:49;;;;;;;15.48;10.73;;;18.90;99.90;;;;;;6350527;22;20237;-93
2021/09/15 08:27:15;;;;;;;10.48;9.48;;;18.90;99.90;;;;;;6349627;22;20151;-93
2021/09/15 08:29:46;;;;;;;11.43;9.20;;;19.00;99.90;;;;;;6349270;22;20216;-91
2021/09/15 08:32:13;;;;;;;11.68;9.35;;;19.10;99.90;;;;;;6350893;22;20210;-93
2021/09/15 08:34:39;;;;;;;10.48;8.90;;;19.20;99.90;;;;;;6350926;22;20210;-94
2021/09/15 08:37:08;;;;;;;13.23;9.88;;;19.20;99.90;;;;;;6351259;22;20158;-93
2021/09/15 08:39:34;;;;;;;10.18;9.18;;;19.30;99.90;;;;;;6351417;22;20584;-93
2021/09/15 08:42:00;;;;;;;11.07;8.65;;;19.40;99.90;;;;;;6351257;22;20158;-91
2021/09/15 08:44:31;;;;;;;15.93;9.77;;;19.40;99.90;;;;;;6351255;22;20178;-93
2021/09/15 08:46:58;;;;;;;12.23;10.48;;;19.50;99.90;;;;;;6351522;22;20154;-93
2021/09/15 08:49:29;;;;;;;10.77;9.73;;;19.60;99.90;;;;;;6351022;22;20151;-92
2021/09/15 08:52:04;;;;;;;9.93;8.77;;;19.70;99.90;;;;;;6351539;22;20161;-93
2021/09/15 08:54:30;;;;;;;12.40;8.80;;;19.80;99.90;;;;;;6351077;22;20165;-94
2021/09/15 08:57:03;;;;;;;10.40;8.30;;;19.90;99.90;;;;;;6350522;22;20155;-93
2021/09/15 08:59:35;;;;;;;9.93;8.60;;;20.00;99.90;;;;;;6351529;22;20513;-95
2021/09/15 09:02:07;;;;;;;17.35;8.95;;;19.90;99.90;;;;;;6350697;22;20154;-93
2021/09/15 09:04:54;;;;;;;12.45;8.60;;;20.00;99.90;;;;;;6350947;22;20588;-94
2021/09/15 09:07:24;;;;;;;10.02;8.43;;;19.90;99.90;;;;;;6350460;22;20146;-94
2021/09/15 09:09:52;;;;;;;11.82;9.13;;;19.90;99.90;;;;;;6350885;22;20670;-95
2021/09/15 09:12:21;;;;;;;10.55;8.77;;;19.90;99.90;;;;;;6350579;22;20147;-90
2021/09/15 09:14:49;;;;;;;11.75;8.93;;;19.90;99.90;;;;;;6350821;22;20162;-92
2021/09/15 09:17:34;;;;;;;10.18;9.02;;;19.90;99.90;;;;;;6351570;22;20167;-92
2021/09/15 09:20:31;;;;;;;9.50;8.60;;;19.90;99.90;;;;;;6351662;22;20585;-94
2021/09/15 09:23:08;;;;;;;14.68;8.95;;;19.90;99.90;;;;;;6351804;22;20161;-93
2021/09/15 09:25:44;;;;;;;10.00;9.00;;;19.80;99.90;;;;;;6351303;22;20215;-92
2021/09/15 09:28:23;;;;;;;10.20;9.20;;;19.80;99.90;;;;;;6351720;22;20145;-92
2021/09/15 09:31:09;;;;;;;10.23;9.15;;;19.80;99.90;;;;;;6351925;22;20294;-93
2021/09/15 09:33:45;;;;;;;12.05;8.95;;;19.70;99.90;;;;;;6351262;22;20152;-92
2021/09/15 09:36:13;;;;;;;12.27;9.40;;;19.70;99.90;;;;;;6352173;22;20195;-94
2021/09/15 09:38:44;;;;;;;11.95;9.77;;;19.70;99.90;;;;;;6350699;22;20147;-93
2021/09/15 09:41:20;;;;;;;11.35;9.70;;;19.80;99.90;;;;;;6350525;22;20634;-92
2021/09/15 09:43:55;;;;;;;15.23;9.98;;;19.90;99.90;;;;;;6349577;22;20203;-92
2021/09/15 09:46:30;;;;;;;13.10;10.20;;;20.00;99.90;;;;;;6351482;22;20305;-94
2021/09/15 09:49:10;;;;;;;14.35;10.35;;;20.00;99.90;;;;;;6350852;22;20185;-92
2021/09/15 09:51:46;;;;;;;13.07;9.40;;;20.10;99.90;;;;;;6351223;22;20198;-92
2021/09/15 09:54:30;;;;;;;11.65;9.48;;;20.20;99.90;;;;;;6351447;22;20150;-93
2021/09/15 09:56:58;;;;;;;11.07;8.65;;;20.30;99.90;;;;;;6350903;22;20154;-94
2021/09/15 09:59:45;;;;;;;13.20;9.10;;;20.30;99.90;;;;;;6350557;22;20142;-94
2021/09/15 10:02:14;;;;;;;10.70;9.50;;;20.30;99.90;;;;;;6376510;22;20151;-95
2021/09/15 10:05:02;;;;;;;12.73;9.95;;;20.30;99.90;;;;;;6350446;22;20239;-93
2021/09/15 10:07:30;;;;;;;12.32;9.98;;;20.40;99.90;;;;;;6350533;22;20162;-91
2021/09/15 10:09:59;;;;;;;10.18;9.10;;;20.40;99.90;;;;;;6350708;22;20235;-92
2021/09/15 10:12:30;;;;;;;15.30;9.57;;;20.40;99.90;;;;;;6351552;22;20146;-93
2021/09/15 10:14:59;;;;;;;10.00;8.57;;;20.40;99.90;;;;;;6350189;22;20155;-94
2021/09/15 10:17:34;;;;;;;10.32;8.88;;;20.50;99.90;;;;;;6350994;22;20154;-92
2021/09/15 10:20:02;;;;;;;11.32;8.88;;;20.50;99.90;;;;;;6351183;22;20185;-93
2021/09/15 10:22:33;;;;;;;13.45;8.60;;;20.50;99.90;;;;;;6351346;22;20532;-93
2021/09/15 10:25:06;;;;;;;8.50;7.70;;;20.60;99.90;;;;;;6350084;22;20158;-95
2021/09/15 10:28:07;;;;;;;9.65;8.38;;;20.70;99.90;;;;;;6351578;22;20249;-95
2021/09/15 10:31:06;;;;;;;10.70;8.40;;;20.80;99.90;;;;;;6277217;22;20337;-94
2021/09/15 10:33:39;;;;;;;9.55;7.18;;;20.90;99.90;;;;;;6371464;22;20158;-93
2021/09/15 10:36:17;;;;;;;8.52;7.03;;;21.00;99.90;;;;;;6374431;22;20154;-91
2021/09/15 10:38:55;;;;;;;8.50;7.70;;;21.00;99.90;;;;;;6373542;22;20150;-94
2021/09/15 10:41:42;;;;;;;8.95;8.05;;;21.10;99.90;;;;;;6347250;22;20185;-94
2021/09/15 10:44:21;;;;;;;10.63;8.13;;;21.10;99.90;;;;;;6347492;22;20180;-91
2021/09/15 10:47:09;;;;;;;9.80;7.75;;;21.20;99.90;;;;;;6347902;22;20228;-91
2021/09/15 10:49:35;;;;;;;10.85;7.78;;;21.30;99.90;;;;;;6373300;22;20194;-93
2021/09/15 10:52:33;;;;;;;8.50;7.20;;;21.40;99.90;;;;;;6374217;22;20207;-95
2021/09/15 10:55:37;;;;;;;9.07;8.10;;;21.50;99.90;;;;;;6346353;22;20147;-92
2021/09/15 10:58:27;;;;;;;10.13;7.20;;;21.60;99.90;;;;;;6374246;22;20196;-94
2021/09/15 11:00:56;;;;;;;9.43;7.32;;;21.70;99.90;;;;;;6349742;22;20197;-92
2021/09/15 11:03:41;;;;;;;10.20;8.15;;;21.80;99.90;;;;;;6343642;22;20206;-93
2021/09/15 11:06:09;;;;;;;8.55;7.75;;;22.00;99.90;;;;;;6344266;22;20159;-92
2021/09/15 11:08:52;;;;;;;10.48;7.65;;;22.00;99.90;;;;;;6369748;22;20183;-93
2021/09/15 11:11:29;;;;;;;8.80;7.43;;;22.00;99.90;;;;;;6342029;22;20193;-94
2021/09/15 11:14:07;;;;;;;7.80;6.82;;;22.00;99.90;;;;;;6367143;22;20181;-94
2021/09/15 11:16:43;;;;;;;9.20;7.47;;;22.00;99.90;;;;;;6342017;22;20155;-93
2021/09/15 11:19:35;;;;;;;7.80;7.00;;;22.00;99.90;;;;;;6341408;22;20557;-93
2021/09/15 11:22:02;;;;;;;9.60;7.15;;;22.00;99.90;;;;;;6343152;22;20136;-93
2021/09/15 11:24:36;;;;;;;9.00;7.07;;;22.00;99.90;;;;;;6344515;22;20178;-92
2021/09/15 11:27:18;;;;;;;15.27;7.45;;;22.00;99.90;;;;;;6344711;22;20139;-92
2021/09/15 11:29:52;;;;;;;8.30;7.15;;;21.90;99.90;;;;;;6345767;22;20474;-94
2021/09/15 11:32:19;;;;;;;9.20;7.07;;;21.90;99.90;;;;;;6346068;22;20144;-91
2021/09/15 11:34:53;;;;;;;9.65;7.60;;;21.90;99.90;;;;;;6343772;22;20148;-93
2021/09/15 11:37:45;;;;;;;10.18;7.85;;;21.90;99.90;;;;;;6344825;22;20147;-92
2021/09/15 11:40:27;;;;;;;10.15;7.43;;;21.80;99.90;;;;;;6344600;22;20260;-93
2021/09/15 11:43:01;;;;;;;10.02;8.20;;;21.80;99.90;;;;;;6343848;22;20155;-91
2021/09/15 11:45:35;;;;;;;8.77;7.80;;;21.80;99.90;;;;;;6345405;22;20670;-94
2021/09/15 11:48:03;;;;;;;10.77;7.47;;;21.80;99.90;;;;;;6371797;22;20202;-92
2021/09/15 11:50:40;;;;;;;9.82;7.57;;;21.70;99.90;;;;;;6344340;22;20190;-93
2021/09/15 11:53:31;;;;;;;9.50;7.90;;;21.70;99.90;;;;;;6343932;22;20185;-91
2021/09/15 11:56:03;;;;;;;8.45;7.65;;;21.60;99.90;;;;;;6344281;22;20150;-90
2021/09/15 11:58:30;;;;;;;8.98;7.55;;;21.60;99.90;;;;;;6344773;22;20148;-93
2021/09/15 12:00:59;;;;;;;13.65;8.98;;;21.60;99.90;;;;;;6345373;22;20179;-92
2021/09/15 12:03:32;;;;;;;10.98;8.40;;;21.50;99.90;;;;;;6344902;22;20202;-93
2021/09/15 12:06:25;;;;;;;12.63;9.15;;;21.40;99.90;;;;;;6346919;22;20155;-92
2021/09/15 12:08:59;;;;;;;9.85;8.85;;;21.40;99.90;;;;;;6344794;22;20600;-95
2021/09/15 12:11:48;;;;;;;12.05;9.55;;;21.40;99.90;;;;;;6343469;22;20206;-92
2021/09/15 12:14:32;;;;;;;10.07;8.88;;;21.40;99.90;;;;;;6345437;22;20156;-91
2021/09/15 12:17:07;;;;;;;11.15;8.35;;;21.30;99.90;;;;;;6345991;22;20211;-93
2021/09/15 12:20:10;;;;;;;9.38;8.25;;;21.30;99.90;;;;;;6344384;22;20183;-94
2021/09/15 12:22:40;;;;;;;9.25;8.23;;;21.30;99.90;;;;;;6342919;22;20159;-93
2021/09/15 12:25:12;;;;;;;10.77;9.65;;;21.20;99.90;;;;;;6342915;22;20182;-94
2021/09/15 12:28:20;;;;;;;11.10;9.63;;;21.20;99.90;;;;;;6340008;22;20198;-93
2021/09/15 12:30:47;;;;;;;10.95;9.85;;;21.20;99.90;;;;;;6365994;22;20179;-94
2021/09/15 12:33:30;;;;;;;14.00;9.93;;;21.10;99.90;;;;;;6339737;22;20604;-91
2021/09/15 12:36:16;;;;;;;14.93;10.50;;;21.10;99.90;;;;;;6339903;22;20175;-92
2021/09/15 12:39:15;;;;;;;11.18;9.50;;;21.00;99.90;;;;;;6339764;22;20483;-92
2021/09/15 12:41:57;;;;;;;10.50;9.50;;;21.10;99.90;;;;;;6366078;22;20595;-94
2021/09/15 12:44:38;;;;;;;11.50;10.32;;;21.20;99.90;;;;;;6339568;22;20166;-93
2021/09/15 12:47:06;;;;;;;14.45;10.60;;;21.20;99.90;;;;;;6365694;22;20234;-92
2021/09/15 12:49:46;;;;;;;15.02;11.10;;;21.20;99.90;;;;;;6338827;22;20163;-92
2021/09/15 12:52:31;;;;;;;11.45;10.25;;;21.20;99.90;;;;;;6339664;22;20230;-92
2021/09/15 12:55:30;;;;;;;11.55;10.43;;;21.30;99.90;;;;;;6339640;22;20592;-92
2021/09/15 12:58:04;;;;;;;13.52;11.02;;;21.30;99.90;;;;;;6339571;22;20182;-92
2021/09/15 13:00:37;;;;;;;13.45;10.32;;;21.30;99.90;;;;;;6339410;22;20179;-93
2021/09/15 13:03:05;;;;;;;11.88;10.73;;;21.30;99.90;;;;;;6339121;22;20199;-94
2021/09/15 13:05:34;;;;;;;13.77;11.70;;;21.40;99.90;;;;;;6339438;22;20725;-92
2021/09/15 13:08:21;;;;;;;12.93;10.52;;;21.40;99.90;;;;;;6339468;22;20581;-92
2021/09/15 13:10:55;;;;;;;12.65;10.35;;;21.40;99.90;;;;;;6339274;22;20787;-93
2021/09/15 13:13:50;;;;;;;11.75;9.82;;;21.50;99.90;;;;;;6339732;22;20148;-94
2021/09/15 13:16:21;;;;;;;11.20;10.00;;;21.70;99.90;;;;;;6339433;22;20148;-92
2021/09/15 13:18:51;;;;;;;13.90;10.90;;;21.70;99.90;;;;;;6339329;22;20596;-94